Time;durP1;ratioP1;P1;durP2;ratioP2;P2;SDS_P1;SDS_P2;PMS_P1;PMS_P2;Temp;Humidity;BMP_temperature;BMP_pressure;BME280_temperature;BME280_humidity;BME280_pressure;Samples;Min_cycle;Max_cycle;Signal;HPM_P1;HPM_P2
2023/08/05 00:00:52;;;;;;;12.27;6.68;;;16.20;99.90;;;;;;5051522;28;20069;-68
2023/08/05 00:03:17;;;;;;;14.60;6.60;;;16.20;99.90;;;;;;5050560;28;20032;-68
2023/08/05 00:05:43;;;;;;;12.35;6.38;;;16.20;99.90;;;;;;5051782;28;20036;-67
2023/08/05 00:08:09;;;;;;;15.30;6.53;;;16.20;99.90;;;;;;5051185;28;20430;-67
2023/08/05 00:10:34;;;;;;;13.15;6.72;;;16.20;99.90;;;;;;5051065;28;20036;-67
2023/08/05 00:13:00;;;;;;;13.15;6.47;;;16.20;99.90;;;;;;5051538;28;20029;-67
2023/08/05 00:15:26;;;;;;;10.95;6.22;;;16.20;99.90;;;;;;5053351;28;20113;-67
2023/08/05 00:17:51;;;;;;;13.00;5.90;;;16.30;99.90;;;;;;5056128;28;20025;-67
2023/08/05 00:20:17;;;;;;;11.68;6.50;;;16.30;99.90;;;;;;5055726;28;20085;-68
2023/08/05 00:22:43;;;;;;;10.88;5.50;;;16.30;99.90;;;;;;5055561;28;20114;-68
2023/08/05 00:25:09;;;;;;;9.15;5.15;;;16.30;99.90;;;;;;5054927;28;20198;-68
2023/08/05 00:27:34;;;;;;;10.38;5.53;;;16.40;99.90;;;;;;5055347;28;20538;-67
2023/08/05 00:30:00;;;;;;;8.93;4.90;;;16.50;99.90;;;;;;5054988;28;20455;-67
2023/08/05 00:32:29;;;;;;;11.43;4.95;;;16.50;99.90;;;;;;5055553;28;20088;-67
2023/08/05 00:34:55;;;;;;;11.77;5.25;;;16.50;99.90;;;;;;5055730;28;20029;-67
2023/08/05 00:37:21;;;;;;;10.82;5.43;;;16.50;99.90;;;;;;5055602;28;20040;-67
2023/08/05 00:39:46;;;;;;;9.32;4.82;;;16.60;99.90;;;;;;5055723;28;20044;-67
2023/08/05 00:42:12;;;;;;;9.65;4.47;;;16.60;99.90;;;;;;5055603;28;20025;-67
2023/08/05 00:44:37;;;;;;;11.38;5.05;;;16.60;99.90;;;;;;5055479;28;20021;-67
2023/08/05 00:47:04;;;;;;;13.93;5.60;;;16.60;99.90;;;;;;5055657;28;20025;-67
2023/08/05 00:49:30;;;;;;;11.18;5.10;;;16.70;99.90;;;;;;5054753;28;20124;-68
2023/08/05 00:51:56;;;;;;;13.20;5.65;;;16.70;99.90;;;;;;5055394;28;20037;-67
2023/08/05 00:54:22;;;;;;;14.77;6.03;;;16.70;99.90;;;;;;5055314;28;20259;-67
2023/08/05 00:56:48;;;;;;;8.75;4.60;;;16.70;99.90;;;;;;5055113;28;20532;-68
2023/08/05 00:59:13;;;;;;;8.65;4.53;;;16.70;99.90;;;;;;5054987;28;20033;-67
2023/08/05 01:01:39;;;;;;;9.88;5.53;;;16.70;99.90;;;;;;5055260;28;20032;-67
2023/08/05 01:04:05;;;;;;;10.82;4.65;;;16.70;99.90;;;;;;5053975;28;20064;-67
2023/08/05 01:06:32;;;;;;;9.65;4.78;;;16.70;99.90;;;;;;5055026;28;20021;-67
2023/08/05 01:08:59;;;;;;;12.13;5.85;;;16.70;99.90;;;;;;5055000;28;20029;-68
2023/08/05 01:11:25;;;;;;;9.68;4.10;;;16.70;99.90;;;;;;5055180;28;20033;-68
2023/08/05 01:13:50;;;;;;;7.72;4.38;;;16.60;99.90;;;;;;5054652;28;20036;-68
2023/08/05 01:16:16;;;;;;;9.63;4.68;;;16.60;99.90;;;;;;5055018;28;20021;-67
2023/08/05 01:18:42;;;;;;;10.40;4.90;;;16.50;99.90;;;;;;5054710;28;20461;-68
2023/08/05 01:21:27;;;;;;;12.07;6.53;;;16.50;99.90;;;;;;5054880;28;20033;-68
2023/08/05 01:24:10;;;;;;;10.48;4.45;;;16.50;99.90;;;;;;5055289;28;20029;-67
2023/08/05 01:26:36;;;;;;;10.07;4.82;;;16.50;99.90;;;;;;5053726;28;20025;-67
2023/08/05 01:29:04;;;;;;;8.35;4.57;;;16.50;99.90;;;;;;5054809;28;20028;-67
2023/08/05 01:31:31;;;;;;;8.65;4.50;;;16.40;99.90;;;;;;5054420;28;20152;-67
2023/08/05 01:33:57;;;;;;;13.27;5.38;;;16.40;99.90;;;;;;5054575;28;20030;-67
2023/08/05 01:36:22;;;;;;;9.80;4.80;;;16.40;99.90;;;;;;5054470;28;20030;-67
2023/08/05 01:38:48;;;;;;;9.45;4.35;;;16.30;99.90;;;;;;5053216;28;20446;-67
2023/08/05 01:41:15;;;;;;;10.52;4.35;;;16.40;99.90;;;;;;5053268;28;20035;-66
2023/08/05 01:43:41;;;;;;;10.65;4.80;;;16.30;99.90;;;;;;5054341;28;20029;-69
2023/08/05 01:46:07;;;;;;;11.75;4.57;;;16.30;99.90;;;;;;5054414;28;20033;-67
2023/08/05 01:48:32;;;;;;;12.32;4.80;;;16.30;99.90;;;;;;5054111;28;20029;-67
2023/08/05 01:50:58;;;;;;;10.00;4.82;;;16.30;99.90;;;;;;5052997;28;20044;-67
2023/08/05 01:53:23;;;;;;;10.80;5.15;;;16.30;99.90;;;;;;5053874;28;20461;-67
2023/08/05 01:55:49;;;;;;;11.65;4.88;;;16.30;99.90;;;;;;5054230;28;20033;-66
2023/08/05 01:58:14;;;;;;;9.68;5.03;;;16.40;99.90;;;;;;5054108;28;20025;-67
2023/08/05 02:00:40;;;;;;;10.82;5.38;;;16.40;99.90;;;;;;5054148;28;20025;-67
2023/08/05 02:03:05;;;;;;;11.10;4.78;;;16.40;99.90;;;;;;5053913;28;20028;-67
2023/08/05 02:05:31;;;;;;;9.70;5.00;;;16.30;99.90;;;;;;5054143;28;20032;-68
2023/08/05 02:07:56;;;;;;;13.82;5.40;;;16.30;99.90;;;;;;5053905;28;20021;-68
2023/08/05 02:10:22;;;;;;;10.55;5.40;;;16.30;99.90;;;;;;5053960;28;20499;-67
2023/08/05 02:12:47;;;;;;;12.52;5.30;;;16.30;99.90;;;;;;5053922;28;20045;-68
2023/08/05 02:15:13;;;;;;;8.90;5.30;;;16.30;99.90;;;;;;5053933;28;20041;-68
2023/08/05 02:17:39;;;;;;;11.23;5.50;;;16.30;99.90;;;;;;5053651;28;20025;-67
2023/08/05 02:20:05;;;;;;;11.35;5.72;;;16.30;99.90;;;;;;5053712;28;20036;-68
2023/08/05 02:22:31;;;;;;;9.77;4.88;;;16.30;99.90;;;;;;5053427;28;20029;-68
2023/08/05 02:24:56;;;;;;;10.45;5.13;;;16.30;99.90;;;;;;5054046;28;20464;-67
2023/08/05 02:27:22;;;;;;;9.85;5.15;;;16.30;99.90;;;;;;5053636;28;20457;-68
2023/08/05 02:29:47;;;;;;;10.27;4.80;;;16.20;99.90;;;;;;5053323;28;20020;-68
2023/08/05 02:32:13;;;;;;;13.07;5.05;;;16.20;99.90;;;;;;5053332;28;20044;-67
2023/08/05 02:34:38;;;;;;;10.52;5.35;;;16.10;99.90;;;;;;5053482;28;20064;-68
2023/08/05 02:37:04;;;;;;;9.40;5.47;;;16.10;99.90;;;;;;5053061;28;20021;-67
2023/08/05 02:39:29;;;;;;;11.82;4.72;;;16.00;99.90;;;;;;5053266;28;20029;-68
2023/08/05 02:41:55;;;;;;;12.20;4.90;;;16.00;99.90;;;;;;5053344;28;20036;-68
2023/08/05 02:44:20;;;;;;;9.73;4.60;;;16.00;99.90;;;;;;5053369;28;20032;-68
2023/08/05 02:46:46;;;;;;;11.88;5.53;;;15.90;99.90;;;;;;5053199;28;20040;-68
2023/08/05 02:49:11;;;;;;;13.93;5.80;;;15.90;99.90;;;;;;5053089;28;20021;-67
2023/08/05 02:51:37;;;;;;;14.45;5.60;;;15.80;99.90;;;;;;5052876;28;20029;-68
2023/08/05 02:54:03;;;;;;;9.43;4.20;;;15.80;99.90;;;;;;5053278;28;20067;-68
2023/08/05 02:56:29;;;;;;;9.73;4.55;;;15.80;99.90;;;;;;5053038;28;20033;-67
2023/08/05 02:58:55;;;;;;;9.95;5.32;;;15.80;99.90;;;;;;5051817;28;20032;-68
2023/08/05 03:01:20;;;;;;;12.30;5.65;;;15.70;99.90;;;;;;5053037;28;20531;-67
2023/08/05 03:03:46;;;;;;;9.38;4.78;;;15.70;99.90;;;;;;5053111;28;20461;-68
2023/08/05 03:06:12;;;;;;;11.32;5.18;;;15.70;99.90;;;;;;5052579;28;20025;-68
2023/08/05 03:08:37;;;;;;;12.05;5.05;;;15.70;99.90;;;;;;5053263;28;20031;-67
2023/08/05 03:11:04;;;;;;;11.15;5.07;;;15.60;99.90;;;;;;5052643;28;20084;-67
2023/08/05 03:13:30;;;;;;;14.32;5.38;;;15.60;99.90;;;;;;5052866;28;20047;-67
2023/08/05 03:15:55;;;;;;;15.75;5.45;;;15.60;99.90;;;;;;5052868;28;20365;-67
2023/08/05 03:18:21;;;;;;;10.25;5.70;;;15.60;99.90;;;;;;5052523;28;20025;-67
2023/08/05 03:20:47;;;;;;;13.57;5.05;;;15.60;99.90;;;;;;5052340;28;20029;-68
2023/08/05 03:23:13;;;;;;;11.95;5.88;;;15.70;99.90;;;;;;5052619;28;20035;-68
2023/08/05 03:25:38;;;;;;;11.05;5.53;;;15.70;99.90;;;;;;5052532;28;20021;-68
2023/08/05 03:28:04;;;;;;;9.75;5.38;;;15.70;99.90;;;;;;5052555;28;20397;-68
2023/08/05 03:30:30;;;;;;;10.63;5.95;;;15.60;99.90;;;;;;5052622;28;20098;-67
2023/08/05 03:32:55;;;;;;;12.63;5.68;;;15.60;99.90;;;;;;5052393;28;20531;-67
2023/08/05 03:35:21;;;;;;;10.30;5.10;;;15.60;99.90;;;;;;5052107;28;20433;-68
2023/08/05 03:37:46;;;;;;;15.68;5.88;;;15.60;99.90;;;;;;5052511;28;20481;-67
2023/08/05 03:40:13;;;;;;;12.18;5.68;;;15.60;99.90;;;;;;5052392;28;20103;-68
2023/08/05 03:42:39;;;;;;;11.45;5.88;;;15.50;99.90;;;;;;5052188;28;20075;-67
2023/08/05 03:45:06;;;;;;;10.57;5.60;;;15.60;99.90;;;;;;5052323;28;20495;-66
2023/08/05 03:47:32;;;;;;;11.13;5.80;;;15.60;99.90;;;;;;5052037;28;20025;-67
2023/08/05 03:49:57;;;;;;;11.30;5.43;;;15.60;99.90;;;;;;5049960;28;20052;-67
2023/08/05 03:52:26;;;;;;;12.88;6.68;;;15.60;99.90;;;;;;5051980;28;20033;-67
2023/08/05 03:54:52;;;;;;;10.73;5.50;;;15.60;99.90;;;;;;5052363;28;20048;-67
2023/08/05 03:57:17;;;;;;;10.32;5.90;;;15.60;99.90;;;;;;5052140;28;20090;-67
2023/08/05 03:59:43;;;;;;;11.07;5.85;;;15.70;99.90;;;;;;5052193;28;20025;-67
2023/08/05 04:02:09;;;;;;;12.40;5.78;;;15.70;99.90;;;;;;5052408;28;20029;-67
2023/08/05 04:04:35;;;;;;;13.18;5.97;;;15.70;99.90;;;;;;5052145;28;20143;-67
2023/08/05 04:07:01;;;;;;;11.73;6.00;;;15.70;99.90;;;;;;5052468;28;20096;-66
2023/08/05 04:09:26;;;;;;;14.15;6.45;;;15.80;99.90;;;;;;5052473;28;20368;-66
2023/08/05 04:11:53;;;;;;;12.23;5.80;;;15.80;99.90;;;;;;5052306;28;20084;-67
2023/08/05 04:14:20;;;;;;;13.45;5.68;;;15.80;99.90;;;;;;5052216;28;20040;-67
2023/08/05 04:16:47;;;;;;;11.70;6.40;;;15.80;99.90;;;;;;5052265;28;20142;-66
2023/08/05 04:19:15;;;;;;;11.48;5.82;;;15.80;99.90;;;;;;5052079;28;20048;-67
2023/08/05 04:21:46;;;;;;;11.30;6.03;;;15.80;99.90;;;;;;5052101;28;20167;-67
2023/08/05 04:24:12;;;;;;;13.77;6.17;;;15.80;99.90;;;;;;5052200;28;20029;-67
2023/08/05 04:26:38;;;;;;;15.07;6.93;;;15.80;99.90;;;;;;5052036;28;20025;-67
2023/08/05 04:29:04;;;;;;;11.50;5.80;;;15.80;99.90;;;;;;5052122;28;20035;-66
2023/08/05 04:31:29;;;;;;;12.77;5.10;;;15.80;99.90;;;;;;5051658;28;20049;-68
2023/08/05 04:33:55;;;;;;;12.35;5.78;;;15.80;99.90;;;;;;5051833;28;20041;-67
2023/08/05 04:36:20;;;;;;;8.77;4.90;;;15.80;99.90;;;;;;5052074;28;20108;-68
2023/08/05 04:38:46;;;;;;;11.75;5.72;;;15.80;99.90;;;;;;5052035;28;20053;-67
2023/08/05 04:41:11;;;;;;;13.07;5.53;;;15.90;99.90;;;;;;5052008;28;20453;-68
2023/08/05 04:43:37;;;;;;;14.57;5.65;;;15.90;99.90;;;;;;5052041;28;20024;-68
2023/08/05 04:46:02;;;;;;;14.00;5.85;;;15.90;99.90;;;;;;5051902;28;20025;-67
2023/08/05 04:48:28;;;;;;;14.38;6.20;;;15.90;99.90;;;;;;5051654;28;20426;-68
2023/08/05 04:50:55;;;;;;;13.98;6.78;;;15.90;99.90;;;;;;5050506;28;20047;-68
2023/08/05 04:53:21;;;;;;;16.10;6.70;;;15.90;99.90;;;;;;5051685;28;20473;-68
2023/08/05 04:55:46;;;;;;;16.83;6.63;;;15.90;99.90;;;;;;5051781;28;20043;-68
2023/08/05 04:58:12;;;;;;;14.20;6.70;;;15.90;99.90;;;;;;5051274;28;20033;-68
2023/08/05 05:00:38;;;;;;;11.95;6.68;;;15.90;99.90;;;;;;5051993;28;20457;-67
2023/08/05 05:03:06;;;;;;;15.57;6.63;;;16.00;99.90;;;;;;5055091;28;20603;-67
2023/08/05 05:05:33;;;;;;;14.18;6.80;;;16.00;99.90;;;;;;5055201;28;20056;-67
2023/08/05 05:07:59;;;;;;;12.48;6.95;;;16.00;99.90;;;;;;5055503;28;20072;-67
2023/08/05 05:10:25;;;;;;;20.10;7.10;;;16.10;99.90;;;;;;5055217;28;20549;-67
2023/08/05 05:12:51;;;;;;;14.68;7.20;;;16.10;99.90;;;;;;5055431;28;20053;-67
2023/08/05 05:15:17;;;;;;;14.00;7.13;;;16.10;99.90;;;;;;5055559;28;20484;-67
2023/08/05 05:17:43;;;;;;;15.13;7.80;;;16.20;99.90;;;;;;5055297;28;20477;-67
2023/08/05 05:20:09;;;;;;;16.48;7.70;;;16.30;99.90;;;;;;5054991;28;20036;-67
2023/08/05 05:22:34;;;;;;;15.20;8.40;;;16.40;99.90;;;;;;5054579;28;20077;-67
2023/08/05 05:25:00;;;;;;;15.98;7.78;;;16.50;99.90;;;;;;5054917;28;20021;-67
2023/08/05 05:27:26;;;;;;;16.33;8.32;;;16.50;99.90;;;;;;5054872;28;20036;-67
2023/08/05 05:29:51;;;;;;;17.48;8.25;;;16.60;99.90;;;;;;5054425;28;20071;-67
2023/08/05 05:32:17;;;;;;;16.25;8.43;;;16.70;99.90;;;;;;5054435;28;20033;-67
2023/08/05 05:34:42;;;;;;;18.35;8.10;;;16.70;99.90;;;;;;5054543;28;20029;-67
2023/08/05 05:37:08;;;;;;;15.27;8.68;;;16.70;99.90;;;;;;5054619;28;20040;-67
2023/08/05 05:39:34;;;;;;;16.25;8.00;;;16.60;99.90;;;;;;5054943;28;20034;-67
2023/08/05 05:41:59;;;;;;;15.32;8.27;;;16.60;99.90;;;;;;5055025;28;20096;-67
2023/08/05 05:44:27;;;;;;;17.10;8.63;;;16.50;99.90;;;;;;5054336;28;20380;-67
2023/08/05 05:46:53;;;;;;;14.13;7.88;;;16.50;99.90;;;;;;5054343;28;20068;-67
2023/08/05 05:49:19;;;;;;;16.48;7.95;;;16.60;99.90;;;;;;5054401;28;20437;-67
2023/08/05 05:51:46;;;;;;;15.45;8.25;;;16.60;99.90;;;;;;5054481;28;20055;-67
2023/08/05 05:54:12;;;;;;;14.70;7.78;;;16.60;99.90;;;;;;5054530;28;20043;-67
2023/08/05 05:56:38;;;;;;;16.55;7.78;;;16.70;99.90;;;;;;5054578;28;20055;-67
2023/08/05 05:59:03;;;;;;;15.40;8.23;;;16.60;99.90;;;;;;5050993;28;20029;-68
2023/08/05 06:01:29;;;;;;;16.50;8.90;;;16.70;99.90;;;;;;5053265;28;20032;-68
2023/08/05 06:03:54;;;;;;;15.02;7.97;;;16.70;99.90;;;;;;5054040;28;20025;-68
2023/08/05 06:06:20;;;;;;;14.20;7.72;;;16.80;99.90;;;;;;5054169;28;20484;-68
2023/08/05 06:08:46;;;;;;;14.27;8.23;;;16.80;99.90;;;;;;5054161;28;20025;-67
2023/08/05 06:11:11;;;;;;;16.30;8.30;;;16.90;99.90;;;;;;5054068;28;20473;-68
2023/08/05 06:13:37;;;;;;;19.33;8.88;;;17.00;99.90;;;;;;5053394;28;20113;-67
2023/08/05 06:16:03;;;;;;;18.42;8.57;;;17.00;99.90;;;;;;5033636;28;20044;-68
2023/08/05 06:18:29;;;;;;;15.10;8.23;;;17.00;99.90;;;;;;5033806;28;20076;-67
2023/08/05 06:20:54;;;;;;;18.27;8.35;;;17.00;99.90;;;;;;5052866;28;20037;-68
2023/08/05 06:23:20;;;;;;;14.90;7.93;;;17.20;99.90;;;;;;5054208;28;20044;-68
2023/08/05 06:25:46;;;;;;;18.42;8.30;;;17.30;99.90;;;;;;5053936;28;20025;-67
2023/08/05 06:28:12;;;;;;;20.20;8.48;;;17.30;99.90;;;;;;5053317;28;20532;-68
2023/08/05 06:30:44;;;;;;;15.40;7.80;;;17.50;99.90;;;;;;5053502;28;20049;-67
2023/08/05 06:33:10;;;;;;;15.95;7.65;;;17.60;99.90;;;;;;5053627;28;20028;-67
2023/08/05 06:35:36;;;;;;;14.90;7.97;;;17.80;99.90;;;;;;5053744;28;20029;-68
2023/08/05 06:38:01;;;;;;;16.38;8.30;;;18.00;99.90;;;;;;5053628;28;20063;-67
2023/08/05 06:40:27;;;;;;;14.68;7.63;;;18.30;99.90;;;;;;5052421;28;20060;-68
2023/08/05 06:42:53;;;;;;;18.23;7.80;;;18.50;99.90;;;;;;5053426;28;20017;-67
2023/08/05 06:45:18;;;;;;;14.82;8.13;;;18.50;99.90;;;;;;5053391;28;20029;-67
2023/08/05 06:47:44;;;;;;;15.30;7.80;;;18.70;99.90;;;;;;5053358;28;20029;-68
2023/08/05 06:50:10;;;;;;;16.10;8.95;;;18.80;99.90;;;;;;5053844;28;20029;-67
2023/08/05 06:52:35;;;;;;;18.58;8.38;;;19.00;99.90;;;;;;5053350;28;20123;-68
2023/08/05 06:55:02;;;;;;;15.35;7.75;;;19.10;99.90;;;;;;5052645;28;20108;-68
2023/08/05 06:57:28;;;;;;;15.85;7.93;;;19.10;99.90;;;;;;5053065;28;20037;-68
2023/08/05 06:59:54;;;;;;;15.07;8.38;;;19.10;99.90;;;;;;5052742;28;20174;-68
2023/08/05 07:02:19;;;;;;;15.63;7.57;;;19.20;99.90;;;;;;5052627;28;20478;-67
2023/08/05 07:04:45;;;;;;;16.60;7.38;;;19.20;99.90;;;;;;5052655;28;20370;-68
2023/08/05 07:07:11;;;;;;;15.82;8.15;;;19.30;99.90;;;;;;5053007;28;20397;-68
2023/08/05 07:09:36;;;;;;;14.52;7.63;;;19.40;99.90;;;;;;5052806;28;20151;-68
2023/08/05 07:12:02;;;;;;;19.70;8.38;;;19.50;99.90;;;;;;5053016;28;20473;-68
2023/08/05 07:14:28;;;;;;;17.50;7.95;;;19.50;99.90;;;;;;5053221;28;20051;-68
2023/08/05 07:16:53;;;;;;;14.13;7.60;;;19.40;99.90;;;;;;5052981;28;20128;-67
2023/08/05 07:19:19;;;;;;;15.10;7.13;;;19.40;99.90;;;;;;5053023;28;20428;-68
2023/08/05 07:21:44;;;;;;;12.98;7.22;;;19.50;99.90;;;;;;5052824;28;20068;-67
2023/08/05 07:24:10;;;;;;;14.02;7.47;;;19.50;99.90;;;;;;5051676;28;20025;-68
2023/08/05 07:26:36;;;;;;;13.68;6.50;;;19.60;99.90;;;;;;5052335;28;20025;-67
2023/08/05 07:29:01;;;;;;;10.60;6.30;;;19.70;99.90;;;;;;5053022;28;20079;-67
2023/08/05 07:31:27;;;;;;;11.32;5.78;;;19.60;99.90;;;;;;5052162;28;20087;-67
2023/08/05 07:33:52;;;;;;;9.95;6.32;;;19.70;99.90;;;;;;5052867;28;20465;-66
2023/08/05 07:36:22;;;;;;;10.95;6.20;;;19.90;99.90;;;;;;5051956;28;20033;-66
2023/08/05 07:38:49;;;;;;;10.23;5.85;;;20.00;99.90;;;;;;5052650;28;20044;-66
2023/08/05 07:41:20;;;;;;;10.55;6.35;;;20.20;99.90;;;;;;5052595;28;20091;-66
2023/08/05 07:43:46;;;;;;;11.33;6.40;;;20.40;99.90;;;;;;5053038;28;20032;-65
2023/08/05 07:46:13;;;;;;;11.20;6.28;;;20.60;99.90;;;;;;5052560;28;20134;-67
2023/08/05 07:48:39;;;;;;;13.52;6.22;;;20.60;99.90;;;;;;5051889;28;20032;-66
2023/08/05 07:51:08;;;;;;;12.00;6.07;;;20.70;99.90;;;;;;5052167;28;20036;-66
2023/08/05 07:53:38;;;;;;;9.55;5.43;;;20.60;99.90;;;;;;5052133;28;20388;-66
2023/08/05 07:56:14;;;;;;;11.50;6.40;;;20.80;99.90;;;;;;5052040;28;20072;-66
2023/08/05 07:58:42;;;;;;;14.27;7.03;;;20.80;99.90;;;;;;5052506;28;20082;-66
2023/08/05 08:01:08;;;;;;;9.35;5.80;;;20.70;99.90;;;;;;5052565;28;20485;-67
2023/08/05 08:03:34;;;;;;;12.75;6.25;;;20.90;99.90;;;;;;5051743;28;20186;-67
2023/08/05 08:06:00;;;;;;;12.82;6.00;;;21.30;99.90;;;;;;5052284;28;20465;-67
2023/08/05 08:08:26;;;;;;;10.02;5.55;;;21.70;99.90;;;;;;5051950;28;20036;-67
2023/08/05 08:10:51;;;;;;;12.63;6.03;;;22.20;99.90;;;;;;5052405;28;20021;-66
2023/08/05 08:13:17;;;;;;;11.52;5.72;;;22.50;99.90;;;;;;5052275;28;20130;-67
2023/08/05 08:15:42;;;;;;;10.23;5.95;;;22.70;99.90;;;;;;5051750;28;20024;-67
2023/08/05 08:18:08;;;;;;;8.55;4.63;;;22.70;99.90;;;;;;5052133;28;20033;-67
2023/08/05 08:20:33;;;;;;;6.53;3.00;;;23.00;99.90;;;;;;5052485;28;20029;-67
2023/08/05 08:22:59;;;;;;;6.60;2.70;;;23.20;99.90;;;;;;5052252;28;20028;-67
2023/08/05 08:25:25;;;;;;;6.28;3.15;;;23.00;99.90;;;;;;5052096;28;20082;-67
2023/08/05 08:27:50;;;;;;;4.80;3.22;;;22.80;99.90;;;;;;5052318;28;20025;-67
2023/08/05 08:30:16;;;;;;;4.78;2.45;;;22.70;99.90;;;;;;5051566;28;20084;-66
2023/08/05 08:32:41;;;;;;;5.50;2.70;;;23.20;99.90;;;;;;5051752;28;20496;-66
2023/08/05 08:35:07;;;;;;;5.72;2.65;;;23.90;99.90;;;;;;5052260;28;20416;-66
2023/08/05 08:37:33;;;;;;;5.82;3.05;;;24.10;99.90;;;;;;5054455;28;20484;-66
2023/08/05 08:39:58;;;;;;;4.90;2.65;;;23.80;99.90;;;;;;5054383;28;20029;-66
2023/08/05 08:42:25;;;;;;;7.25;3.22;;;23.70;99.90;;;;;;5055697;28;20033;-66
2023/08/05 08:44:52;;;;;;;5.65;2.58;;;23.70;99.90;;;;;;5055695;28;20029;-66
2023/08/05 08:47:18;;;;;;;8.05;2.85;;;23.90;99.90;;;;;;5055606;28;20036;-66
2023/08/05 08:49:47;;;;;;;7.57;3.63;;;24.00;99.90;;;;;;5055235;28;20120;-67
2023/08/05 08:52:18;;;;;;;6.05;3.33;;;23.90;99.90;;;;;;5054867;28;20060;-67
2023/08/05 08:54:44;;;;;;;7.07;3.55;;;23.90;99.90;;;;;;5054089;28;20028;-66
2023/08/05 08:57:13;;;;;;;8.75;3.90;;;24.00;99.90;;;;;;5054842;28;20033;-66
2023/08/05 08:59:39;;;;;;;10.50;4.55;;;24.60;99.90;;;;;;5055467;28;20439;-67
2023/08/05 09:02:11;;;;;;;6.82;3.60;;;25.80;99.90;;;;;;5055806;28;20087;-68
2023/08/05 09:04:39;;;;;;;8.52;4.13;;;26.10;99.20;;;;;;5055307;28;20112;-67
2023/08/05 09:07:05;;;;;;;8.63;3.83;;;25.90;99.70;;;;;;5054924;28;20396;-67
2023/08/05 09:09:31;;;;;;;8.68;3.95;;;25.80;99.40;;;;;;5055005;28;20028;-66
2023/08/05 09:11:58;;;;;;;8.73;4.10;;;25.40;99.80;;;;;;5054881;28;20079;-66
2023/08/05 09:14:23;;;;;;;8.73;4.10;;;25.10;99.90;;;;;;5054954;28;20036;-66
2023/08/05 09:16:59;;;;;;;6.78;3.40;;;24.50;99.90;;;;;;5054322;28;20029;-66
2023/08/05 09:19:27;;;;;;;10.35;4.78;;;23.90;99.90;;;;;;5063610;28;20044;-66
2023/08/05 09:21:53;;;;;;;9.40;4.25;;;23.20;99.90;;;;;;5074767;28;20035;-66
2023/08/05 09:24:26;;;;;;;8.85;4.70;;;22.80;99.90;;;;;;5060802;28;20024;-66
2023/08/05 09:26:56;;;;;;;9.20;4.10;;;22.60;99.90;;;;;;5055558;28;20025;-66
2023/08/05 09:29:27;;;;;;;12.25;4.78;;;22.80;99.90;;;;;;5054822;28;20036;-66
2023/08/05 09:32:03;;;;;;;12.65;4.72;;;22.90;99.90;;;;;;5058982;28;20056;-66
2023/08/05 09:34:39;;;;;;;8.10;3.90;;;23.20;99.90;;;;;;5072904;28;20037;-66
2023/08/05 09:37:08;;;;;;;8.25;3.92;;;23.60;99.90;;;;;;5073416;28;20515;-66
2023/08/05 09:39:48;;;;;;;7.68;5.00;;;23.70;99.90;;;;;;5073857;28;20137;-66
2023/08/05 09:42:22;;;;;;;9.32;4.60;;;23.50;99.90;;;;;;5073778;28;20028;-68
2023/08/05 09:44:49;;;;;;;9.30;4.90;;;23.30;99.90;;;;;;5073957;28;20115;-67
2023/08/05 09:47:21;;;;;;;10.15;5.28;;;23.20;99.90;;;;;;5074282;28;20036;-67
2023/08/05 09:49:49;;;;;;;;;;;23.10;99.90;;;;;;5061592;28;20489;-66
2023/08/05 09:52:17;;;;;;;10.15;5.10;;;22.90;99.90;;;;;;5053495;28;20338;-66
2023/08/05 09:55:07;;;;;;;10.00;4.97;;;22.50;99.90;;;;;;5054282;28;20029;-67
2023/08/05 09:57:33;;;;;;;13.82;6.60;;;22.20;99.90;;;;;;5050003;28;20394;-66
2023/08/05 09:59:59;;;;;;;8.70;5.50;;;21.80;99.90;;;;;;5054622;28;20376;-66
2023/08/05 10:02:26;;;;;;;7.90;5.10;;;21.30;99.90;;;;;;5054434;28;20037;-66
2023/08/05 10:04:54;;;;;;;9.98;4.60;;;21.00;99.90;;;;;;5054167;28;20472;-66
2023/08/05 10:07:23;;;;;;;12.35;6.38;;;20.60;99.90;;;;;;5054424;28;20079;-66
2023/08/05 10:09:50;;;;;;;9.38;4.13;;;20.50;99.90;;;;;;5054288;28;20021;-67
2023/08/05 10:12:22;;;;;;;7.78;4.15;;;20.50;99.90;;;;;;5054466;28;20127;-66
2023/08/05 10:14:49;;;;;;;9.80;3.25;;;20.50;99.90;;;;;;5054403;28;20033;-67
2023/08/05 10:17:17;;;;;;;10.38;3.88;;;20.60;99.90;;;;;;5053911;28;20055;-67
2023/08/05 10:19:47;;;;;;;8.68;3.67;;;20.60;99.90;;;;;;5053933;28;20025;-67
2023/08/05 10:22:12;;;;;;;7.47;3.47;;;20.70;99.90;;;;;;5054321;28;20478;-67
2023/08/05 10:24:54;;;;;;;5.45;3.25;;;20.80;99.90;;;;;;5053404;28;20473;-66
2023/08/05 10:27:34;;;;;;;8.93;3.80;;;20.80;99.90;;;;;;5049538;28;20369;-66
2023/08/05 10:30:06;;;;;;;5.90;3.30;;;20.80;99.90;;;;;;5052679;28;20362;-66
2023/08/05 10:32:33;;;;;;;;;;;20.80;99.90;;;;;;5054320;28;20032;-65
2023/08/05 10:35:27;;;;;;;4.72;2.53;;;20.80;99.90;;;;;;5053800;28;19905;-66
2023/08/05 10:38:06;;;;;;;6.43;3.15;;;20.60;99.90;;;;;;5053557;28;20033;-66
2023/08/05 10:40:45;;;;;;;8.35;3.40;;;20.40;99.90;;;;;;5057604;28;20137;-66
2023/08/05 10:43:24;;;;;;;8.00;3.53;;;20.40;99.90;;;;;;5060349;28;20032;-66
2023/08/05 10:45:49;;;;;;;6.45;3.40;;;20.20;99.90;;;;;;5053538;28;20036;-66
2023/08/05 10:48:15;;;;;;;7.88;3.63;;;20.10;99.90;;;;;;5053688;28;20144;-66
2023/08/05 10:50:42;;;;;;;7.15;3.40;;;20.10;99.90;;;;;;5053372;28;20064;-66
2023/08/05 10:53:12;;;;;;;4.88;3.45;;;20.00;99.90;;;;;;5053464;28;20063;-66
2023/08/05 10:55:54;;;;;;;8.30;4.28;;;19.80;99.90;;;;;;5053173;28;20033;-66
2023/08/05 10:58:27;;;;;;;8.40;3.28;;;19.70;99.90;;;;;;5052205;28;20021;-66
2023/08/05 11:01:05;;;;;;;11.00;5.00;;;19.60;99.90;;;;;;5053649;28;20056;-66
2023/08/05 11:03:42;;;;;;;9.30;4.18;;;19.60;99.90;;;;;;5053668;28;20041;-66
2023/08/05 11:06:09;;;;;;;8.48;3.08;;;19.60;99.90;;;;;;5053542;28;20033;-66
2023/08/05 11:08:37;;;;;;;10.23;4.90;;;19.60;99.90;;;;;;5053321;28;20029;-66
2023/08/05 11:11:05;;;;;;;11.02;5.43;;;19.60;99.90;;;;;;5052146;28;20048;-66
2023/08/05 11:13:33;;;;;;;6.15;2.88;;;19.70;99.90;;;;;;5052608;28;20075;-66
2023/08/05 11:16:00;;;;;;;10.52;4.07;;;19.70;99.90;;;;;;5052632;28;20079;-66
2023/08/05 11:18:26;;;;;;;6.75;3.50;;;19.50;99.90;;;;;;5052716;28;20037;-67
2023/08/05 11:20:51;;;;;;;18.27;9.18;;;19.30;99.90;;;;;;5052970;28;20052;-66
2023/08/05 11:23:17;;;;;;;9.55;3.38;;;19.00;99.90;;;;;;5052792;28;20032;-66
2023/08/05 11:25:45;;;;;;;7.38;3.70;;;18.80;99.90;;;;;;5056889;28;20111;-66
2023/08/05 11:28:10;;;;;;;9.80;3.92;;;18.60;99.90;;;;;;5072755;28;20032;-66
2023/08/05 11:30:39;;;;;;;11.73;6.28;;;18.40;99.90;;;;;;5071167;28;20075;-65
2023/08/05 11:33:05;;;;;;;11.95;5.10;;;18.20;99.90;;;;;;5071239;28;20047;-66
2023/08/05 11:35:31;;;;;;;10.25;4.88;;;18.10;99.90;;;;;;5072608;28;20037;-67
2023/08/05 11:37:57;;;;;;;16.23;7.90;;;18.10;99.90;;;;;;5071236;28;20032;-66
2023/08/05 11:40:24;;;;;;;11.88;6.45;;;18.00;99.90;;;;;;5067333;28;20035;-67
2023/08/05 11:42:52;;;;;;;10.27;4.78;;;18.00;99.90;;;;;;5063470;28;20024;-65
2023/08/05 11:45:18;;;;;;;20.60;10.30;;;18.10;99.90;;;;;;5057702;28;20079;-67
2023/08/05 11:47:45;;;;;;;16.55;6.88;;;17.80;99.90;;;;;;5051874;28;20029;-67
2023/08/05 11:50:12;;;;;;;17.38;9.50;;;17.50;99.90;;;;;;5071770;28;20024;-66
2023/08/05 11:52:39;;;;;;;20.13;13.63;;;17.20;99.90;;;;;;5072415;28;20117;-67
2023/08/05 11:55:07;;;;;;;18.38;12.77;;;16.80;99.90;;;;;;5071398;28;20531;-66
2023/08/05 11:57:33;;;;;;;22.15;12.57;;;16.60;99.90;;;;;;5062364;28;20052;-67
2023/08/05 12:00:08;;;;;;;21.27;12.00;;;16.60;99.90;;;;;;5052557;28;20060;-66
2023/08/05 12:02:35;;;;;;;19.23;11.77;;;16.50;99.90;;;;;;5050493;28;20021;-67
2023/08/05 12:05:01;;;;;;;15.27;10.43;;;16.40;99.90;;;;;;5052218;28;20095;-66
2023/08/05 12:07:27;;;;;;;19.65;13.05;;;16.40;99.90;;;;;;5052487;28;20116;-66
2023/08/05 12:10:07;;;;;;;19.27;13.35;;;16.40;99.90;;;;;;5052297;28;20029;-66
2023/08/05 12:12:33;;;;;;;16.48;10.48;;;16.40;99.90;;;;;;5055970;28;20036;-66
2023/08/05 12:15:12;;;;;;;20.73;13.20;;;16.40;99.90;;;;;;5069077;28;20020;-67
2023/08/05 12:17:46;;;;;;;19.42;10.88;;;16.30;99.90;;;;;;5075884;28;20039;-67
2023/08/05 12:20:18;;;;;;;23.13;13.13;;;16.20;99.90;;;;;;5064797;28;20659;-67
2023/08/05 12:22:44;;;;;;;21.88;12.00;;;16.10;99.90;;;;;;5050414;28;20461;-67
2023/08/05 12:25:09;;;;;;;18.90;11.25;;;16.10;99.90;;;;;;5056459;28;20029;-67
2023/08/05 12:27:36;;;;;;;23.25;11.32;;;16.00;99.90;;;;;;5056351;28;20519;-67
2023/08/05 12:30:02;;;;;;;20.88;11.65;;;16.10;99.90;;;;;;5056078;28;20086;-66
2023/08/05 12:32:28;;;;;;;18.50;9.90;;;16.10;99.90;;;;;;5056133;28;20091;-67
2023/08/05 12:34:53;;;;;;;14.55;8.23;;;16.10;99.90;;;;;;5055975;28;20033;-66
2023/08/05 12:37:19;;;;;;;17.98;9.80;;;16.10;99.90;;;;;;5056239;28;20064;-67
2023/08/05 12:39:44;;;;;;;17.80;9.43;;;16.00;99.90;;;;;;5056177;28;20110;-67